| time (UTC) | temp F | wind direction | speed MPH | gust MPH | rain 1hr in | rain 24hr in | rain mn in | humidity % | barometer mb |
| 20260906184559 | 94 | 168 | 2.0 | 7.0 | 0.00 | 0.00 | 0.00 | 51 | 1012.1 |
| 20260906183108 | 94 | 360 | 2.0 | 5.0 | 0.00 | 0.00 | 0.00 | 52 | 1012.4 |
| 20260906181553 | 93 | 360 | 1.0 | 5.0 | 0.00 | 0.00 | 0.00 | 54 | 1012.7 |
| 20260906180109 | 92 | 360 | 1.0 | 5.0 | 0.00 | 0.00 | 0.00 | 56 | 1013.2 |
| 20260906174550 | 91 | 360 | 2.0 | 6.0 | 0.00 | 0.00 | 0.00 | 61 | 1013.3 |
| 20260906173049 | 91 | 360 | 2.0 | 6.0 | 0.00 | 0.00 | 0.00 | 58 | 1013.6 |
| 20260906171549 | 90 | 360 | 5.0 | 9.0 | 0.00 | 0.00 | 0.00 | 58 | 1013.8 |
| 20260906170114 | 90 | 360 | 5.0 | 8.0 | 0.00 | 0.00 | 0.00 | 58 | 1013.9 |
| 20260906164548 | 89 | 360 | 1.0 | 11.0 | 0.00 | 0.00 | 0.00 | 64 | 1014.1 |
| 20260906163049 | 90 | 288 | 0.0 | 9.0 | 0.00 | 0.00 | 0.00 | 59 | 1014.0 |
| 20260906161546 | 92 | 182 | 0.0 | 4.0 | 0.00 | 0.00 | 0.00 | 57 | 1014.1 |
| 20260906160042 | 90 | 180 | 2.0 | 4.0 | 0.00 | 0.00 | 0.00 | 61 | 1013.9 |
| 20260906154540 | 89 | 181 | 1.0 | 4.0 | 0.00 | 0.00 | 0.00 | 64 | 1013.7 |
| 20260906153039 | 88 | 181 | 0.0 | 0.0 | 0.00 | 0.00 | 0.00 | 65 | 1013.6 |
| 20260906151534 | 88 | 180 | 1.0 | 4.0 | 0.00 | 0.00 | 0.00 | 66 | 1013.5 |
| 20260906150035 | 87 | 173 | 2.0 | 4.0 | 0.00 | 0.00 | 0.00 | 65 | 1013.4 |
| 20260906144535 | 86 | 171 | 0.0 | 3.0 | 0.00 | 0.00 | 0.00 | 69 | 1013.3 |
| 20260906143028 | 85 | 171 | 0.0 | 4.0 | 0.00 | 0.00 | 0.00 | 68 | 1013.5 |
| 20260906141528 | 84 | 171 | 3.0 | 4.0 | 0.00 | 0.00 | 0.00 | 69 | 1013.6 |
| 20260906140021 | 84 | 172 | 2.0 | 6.0 | 0.00 | 0.00 | 0.00 | 68 | 1013.6 |
| 20260906134525 | 82 | 169 | 3.0 | 5.0 | 0.00 | 0.00 | 0.00 | 71 | 1013.5 |
| 20260906133016 | 79 | 167 | 3.0 | 5.0 | 0.00 | 0.00 | 0.00 | 74 | 1013.3 |
| 20260906131512 | 78 | 167 | 0.0 | 3.0 | 0.00 | 0.00 | 0.00 | 75 | 1012.9 |
| 20260906130011 | 78 | 360 | 0.0 | 3.0 | 0.00 | 0.00 | 0.00 | 74 | 1012.9 |
| 20260906124512 | 77 | 144 | 0.0 | 2.0 | 0.00 | 0.00 | 0.00 | 77 | 1012.6 |
| 20260906123008 | 76 | 143 | 0.0 | 3.0 | 0.00 | 0.00 | 0.00 | 77 | 1012.5 |
| 20260906121506 | 75 | 360 | 1.0 | 5.0 | 0.00 | 0.00 | 0.00 | 76 | 1012.3 |
| 20260906120006 | 75 | 360 | 1.0 | 4.0 | 0.00 | 0.00 | 0.00 | 77 | 1012.1 |
| 20260906114503 | 75 | 360 | 1.0 | 3.0 | 0.00 | 0.00 | 0.00 | 77 | 1012.1 |
| 20260906113003 | 76 | 141 | 1.0 | 3.0 | 0.00 | 0.00 | 0.00 | 76 | 1011.9 |
| 20260906111503 | 76 | 360 | 1.0 | 3.0 | 0.00 | 0.00 | 0.00 | 77 | 1011.8 |
| 20260906110002 | 75 | 360 | 1.0 | 4.0 | 0.00 | 0.00 | 0.00 | 77 | 1011.8 |
| 20260906104600 | 75 | 140 | 1.0 | 2.0 | 0.00 | 0.00 | 0.00 | 78 | 1011.8 |
| 20260906103058 | 75 | 360 | 1.0 | 4.0 | 0.00 | 0.00 | 0.00 | 78 | 1011.6 |
| 20260906101557 | 76 | 140 | 2.0 | 4.0 | 0.00 | 0.00 | 0.00 | 77 | 1011.5 |
| 20260906100058 | 76 | 360 | 3.0 | 5.0 | 0.00 | 0.00 | 0.00 | 77 | 1011.6 |
| 20260906094605 | 76 | 140 | 3.0 | 5.0 | 0.00 | 0.00 | 0.00 | 76 | 1011.6 |
| 20260906093054 | 76 | 140 | 4.0 | 7.0 | 0.00 | 0.00 | 0.00 | 75 | 1011.6 |
| 20260906091603 | 76 | 144 | 3.0 | 4.0 | 0.00 | 0.00 | 0.00 | 75 | 1011.6 |
| 20260906090052 | 77 | 143 | 3.0 | 5.0 | 0.00 | 0.00 | 0.00 | 74 | 1011.8 |
| 20260906084551 | 77 | 144 | 2.0 | 6.0 | 0.00 | 0.00 | 0.00 | 74 | 1011.5 |
| 20260906083051 | 77 | 126 | 4.0 | 7.0 | 0.00 | 0.00 | 0.00 | 74 | 1011.5 |
| 20260906081547 | 77 | 123 | 2.0 | 6.0 | 0.00 | 0.00 | 0.00 | 74 | 1011.5 |
| 20260906080047 | 77 | 122 | 3.0 | 4.0 | 0.00 | 0.00 | 0.00 | 74 | 1011.2 |
| 20260906074549 | 77 | 121 | 2.0 | 3.0 | 0.00 | 0.00 | 0.00 | 74 | 1011.4 |
| 20260906073043 | 78 | 121 | 1.0 | 3.0 | 0.00 | 0.00 | 0.00 | 72 | 1011.2 |
| 20260906071540 | 78 | 121 | 2.0 | 6.0 | 0.00 | 0.00 | 0.00 | 71 | 1011.3 |
| 20260906070039 | 79 | 121 | 2.0 | 7.0 | 0.00 | 0.00 | 0.00 | 70 | 1011.3 |
| 20260906064539 | 80 | 125 | 2.0 | 4.0 | 0.00 | 0.00 | 0.00 | 69 | 1011.3 |
| 20260906063036 | 80 | 125 | 3.0 | 6.0 | 0.00 | 0.00 | 0.00 | 68 | 1011.4 |
| 20260906061532 | 81 | 125 | 2.0 | 4.0 | 0.00 | 0.00 | 0.00 | 67 | 1011.5 |
| 20260906060030 | 82 | 123 | 4.0 | 9.0 | 0.00 | 0.00 | 0.00 | 66 | 1011.3 |
| 20260906054539 | 81 | 128 | 3.0 | 7.0 | 0.00 | 0.00 | 0.00 | 66 | 1011.4 |
| 20260906053028 | 82 | 121 | 3.0 | 6.0 | 0.00 | 0.00 | 0.00 | 66 | 1011.4 |
| 20260906051528 | 82 | 121 | 3.0 | 7.0 | 0.00 | 0.00 | 0.00 | 65 | 1011.5 |
| 20260906050024 | 82 | 123 | 4.0 | 8.0 | 0.00 | 0.00 | 0.00 | 65 | 1011.4 |
| 20260906044523 | 83 | 123 | 3.0 | 10.0 | 0.00 | 0.00 | 0.00 | 64 | 1011.4 |
| 20260906043030 | 83 | 128 | 4.0 | 8.0 | 0.00 | 0.00 | 0.00 | 65 | 1011.5 |
| 20260906041522 | 83 | 123 | 3.0 | 7.0 | 0.00 | 0.00 | 0.00 | 65 | 1011.5 |
| 20260906040022 | 83 | 117 | 4.0 | 7.0 | 0.00 | 0.00 | 0.00 | 65 | 1011.3 |
| 20260906034521 | 82 | 138 | 4.0 | 7.0 | 0.00 | 0.00 | 0.00 | 65 | 1011.3 |
| 20260906033025 | 82 | 128 | 4.0 | 5.0 | 0.00 | 0.00 | 0.00 | 65 | 1011.1 |
| 20260906031520 | 83 | 128 | 2.0 | 5.0 | 0.00 | 0.00 | 0.00 | 65 | 1011.0 |
| 20260906030022 | 84 | 128 | 2.0 | 7.0 | 0.00 | 0.00 | 0.00 | 63 | 1010.9 |
| 20260906024518 | 84 | 113 | 3.0 | 7.0 | 0.00 | 0.00 | 0.00 | 63 | 1010.7 |
| 20260906023019 | 84 | 112 | 2.0 | 6.0 | 0.00 | 0.00 | 0.00 | 63 | 1010.3 |
| 20260906021518 | 84 | 111 | 2.0 | 6.0 | 0.00 | 0.00 | 0.00 | 62 | 1010.1 |
| 20260906020018 | 85 | 103 | 2.0 | 6.0 | 0.00 | 0.00 | 0.00 | 63 | 1009.8 |
| 20260906014522 | 85 | 102 | 2.0 | 4.0 | 0.00 | 0.00 | 0.00 | 62 | 1009.6 |
| 20260906013025 | 86 | 103 | 2.0 | 4.0 | 0.00 | 0.00 | 0.00 | 60 | 1009.5 |
| 20260906011516 | 86 | 103 | 2.0 | 6.0 | 0.00 | 0.00 | 0.00 | 60 | 1009.4 |
| 20260906010016 | 87 | 103 | 1.0 | 3.0 | 0.00 | 0.00 | 0.00 | 61 | 1009.3 |
| 20260906004514 | 87 | 103 | 3.0 | 4.0 | 0.00 | 0.00 | 0.00 | 60 | 1009.0 |
| 20260906003014 | 88 | 103 | 2.0 | 4.0 | 0.00 | 0.00 | 0.00 | 60 | 1009.2 |
| 20260906001518 | 89 | 101 | 2.0 | 4.0 | 0.00 | 0.00 | 0.00 | 59 | 1009.4 |
| 20260906000033 | 90 | 101 | 1.0 | 4.0 | 0.00 | 0.00 | 0.00 | 59 | 1009.3 |
| 20260905234512 | 90 | 101 | 2.0 | 4.0 | 0.00 | 0.00 | 0.00 | 58 | 1009.4 |
| 20260905233012 | 91 | 101 | 2.0 | 4.0 | 0.00 | 0.00 | 0.00 | 57 | 1009.4 |
| 20260905231510 | 92 | 101 | 3.0 | 7.0 | 0.00 | 0.00 | 0.00 | 54 | 1009.4 |
| 20260905230010 | 93 | 111 | 2.0 | 6.0 | 0.00 | 0.00 | 0.00 | 54 | 1009.4 |
| 20260905224509 | 93 | 111 | 2.0 | 6.0 | 0.00 | 0.00 | 0.00 | 53 | 1009.4 |
| 20260905223009 | 94 | 112 | 3.0 | 7.0 | 0.00 | 0.00 | 0.00 | 52 | 1009.4 |
| 20260905221507 | 95 | 110 | 3.0 | 10.0 | 0.00 | 0.00 | 0.00 | 51 | 1009.5 |
| 20260905220006 | 97 | 133 | 4.0 | 10.0 | 0.00 | 0.00 | 0.00 | 48 | 1009.4 |
| 20260905214506 | 96 | 139 | 7.0 | 10.0 | 0.00 | 0.00 | 0.00 | 48 | 1009.5 |
| 20260905213003 | 98 | 101 | 5.0 | 10.0 | 0.00 | 0.00 | 0.00 | 45 | 1009.6 |
| 20260905211502 | 97 | 128 | 5.0 | 10.0 | 0.00 | 0.00 | 0.00 | 46 | 1009.6 |
| 20260905210001 | 98 | 93 | 9.0 | 12.0 | 0.00 | 0.00 | 0.00 | 45 | 1009.7 |
| 20260905204603 | 97 | 121 | 6.0 | 11.0 | 0.00 | 0.00 | 0.00 | 47 | 1009.9 |
| 20260905203057 | 98 | 113 | 6.0 | 11.0 | 0.00 | 0.00 | 0.00 | 49 | 1010.1 |
| 20260905201555 | 98 | 76 | 8.0 | 12.0 | 0.00 | 0.00 | 0.00 | 47 | 1010.3 |
| 20260905200054 | 96 | 132 | 6.0 | 12.0 | 0.00 | 0.00 | 0.00 | 51 | 1010.6 |
| 20260905194607 | 98 | 106 | 8.0 | 13.0 | 0.00 | 0.00 | 0.00 | 50 | 1010.6 |
| 20260905193051 | 96 | 91 | 8.0 | 16.0 | 0.00 | 0.00 | 0.00 | 50 | 1010.7 |
| 20260905191556 | 96 | 111 | 9.0 | 13.0 | 0.00 | 0.00 | 0.00 | 49 | 1010.9 |
| 20260905190152 | 99 | 136 | 7.0 | 10.0 | 0.00 | 0.00 | 0.00 | 47 | 1011.1 |